Terminal Aerodrome Forecast
Issued by NWS

Home | Current Version | Previous Version | Text Only | Print | Product List | Glossary On
Versions: 1 2 3 4 5 6 7 8 9 10 11 12
740
FTUS42 TJSJ 081730
TAFJBQ
TAF
TJBQ 081730Z 0818/0918 02010KT P6SM FEW030 SCT050
     FM082300 VRB03KT P6SM FEW025
     FM091200 07006KT P6SM FEW250
      AMD NOT SKED 0902/0911=

USA.gov is the U.S. government's official web portal to all federal, state and local government web resources and services.